createdAt,value
2023-04-08T00:00:38.042Z,0.70
2023-04-08T00:05:40.110Z,0.40
2023-04-08T00:10:42.028Z,1.20
2023-04-08T00:15:44.072Z,1.40
2023-04-08T00:20:46.135Z,0.93
2023-04-08T00:25:48.219Z,0.95
2023-04-08T00:30:50.164Z,0.80
2023-04-08T00:35:52.607Z,0.70
2023-04-08T00:40:54.619Z,0.82
2023-04-08T00:45:56.828Z,0.73
2023-04-08T00:50:59.370Z,0.50
2023-04-08T00:56:01.719Z,0.57
2023-04-08T01:01:13.567Z,0.80
2023-04-08T01:06:38.578Z,0.75
2023-04-08T01:11:44.716Z,0.70
2023-04-08T01:16:47.431Z,0.60
2023-04-08T01:21:49.964Z,0.90
2023-04-08T01:26:52.064Z,0.40
2023-04-08T01:31:55.757Z,0.60
2023-04-08T01:36:58.985Z,0.77
2023-04-08T01:42:02.904Z,0.57
2023-04-08T01:47:05.219Z,0.90
2023-04-08T01:52:09.623Z,0.70
2023-04-08T01:57:14.810Z,0.70
2023-04-08T02:02:20.733Z,0.60
2023-04-08T02:07:22.939Z,0.90
2023-04-08T02:12:25.728Z,0.32
2023-04-08T02:17:42.312Z,0.68
2023-04-08T02:22:50.357Z,0.43
2023-04-08T02:27:55.015Z,0.60
2023-04-08T02:32:58.132Z,0.65
2023-04-08T02:38:00.142Z,0.45
2023-04-08T02:43:02.023Z,0.50
2023-04-08T02:48:04.206Z,0.90
2023-04-08T02:53:06.241Z,0.65
2023-04-08T02:58:08.316Z,0.55
2023-04-08T03:03:10.365Z,0.40
2023-04-08T03:08:12.481Z,0.50
2023-04-08T03:13:14.348Z,0.40
2023-04-08T03:18:16.775Z,0.40
2023-04-08T03:23:18.812Z,0.50
2023-04-08T03:28:20.702Z,0.57
2023-04-08T03:33:22.888Z,0.52
2023-04-08T03:38:24.793Z,0.60
2023-04-08T03:43:26.891Z,0.65
2023-04-08T03:48:28.939Z,0.50
2023-04-08T03:53:31.260Z,0.35
2023-04-08T03:58:33.201Z,0.80
2023-04-08T04:03:35.170Z,0.70
2023-04-08T04:08:37.432Z,0.50
2023-04-08T04:13:39.584Z,0.50
2023-04-08T04:18:41.617Z,0.45
2023-04-08T04:23:43.600Z,0.60
2023-04-08T04:28:45.703Z,0.80
2023-04-08T04:33:48.272Z,0.73
2023-04-08T04:38:52.142Z,0.35
2023-04-08T04:43:54.299Z,0.52
2023-04-08T04:48:56.889Z,0.63
2023-04-08T04:53:59.144Z,0.50
2023-04-08T04:59:01.090Z,0.47
2023-04-08T05:04:03.035Z,0.77
2023-04-08T05:09:04.957Z,0.90
2023-04-08T05:14:07.682Z,0.60
2023-04-08T05:19:09.911Z,0.50
2023-04-08T05:24:12.160Z,0.80
2023-04-08T05:29:14.397Z,1.08
2023-04-08T05:34:19.711Z,0.60
2023-04-08T05:39:21.691Z,0.68
2023-04-08T05:44:23.880Z,0.80
2023-04-08T05:49:26.044Z,0.50
2023-04-08T05:54:28.127Z,0.63
2023-04-08T05:59:30.089Z,0.88
2023-04-08T06:04:32.327Z,1.15
2023-04-08T06:09:38.209Z,1.40
2023-04-08T06:14:40.450Z,1.95
2023-04-08T06:19:42.512Z,2.42
2023-04-08T06:24:44.464Z,1.65
2023-04-08T06:29:46.549Z,1.70
2023-04-08T06:34:48.959Z,2.50
2023-04-08T06:39:51.920Z,2.05
2023-04-08T06:44:54.276Z,1.73
2023-04-08T06:49:56.508Z,1.63
2023-04-08T06:54:58.455Z,1.73
2023-04-08T07:00:00.871Z,1.55
2023-04-08T07:05:02.816Z,1.42
2023-04-08T07:10:05.128Z,1.95
2023-04-08T07:15:07.715Z,2.20
2023-04-08T07:20:10.103Z,1.48
2023-04-08T07:25:12.015Z,1.98
2023-04-08T07:30:13.953Z,2.05
2023-04-08T07:35:19.348Z,1.70
2023-04-08T07:40:21.806Z,1.88
2023-04-08T07:45:24.045Z,1.77
2023-04-08T07:50:26.078Z,1.52
2023-04-08T07:55:27.973Z,1.98
2023-04-08T08:00:31.679Z,2.47
2023-04-08T08:05:33.486Z,1.33
2023-04-08T08:10:35.961Z,1.60
2023-04-08T08:15:37.946Z,2.00
2023-04-08T08:20:39.811Z,1.98
2023-04-08T08:25:41.776Z,2.47
2023-04-08T08:30:43.665Z,1.65
2023-04-08T08:35:45.833Z,2.35
2023-04-08T08:40:47.898Z,1.55
2023-04-08T08:45:50.107Z,1.95
2023-04-08T08:50:52.238Z,1.75
2023-04-08T09:00:59.438Z,1.70
2023-04-08T09:06:02.387Z,1.80
2023-04-08T09:11:18.761Z,2.17
2023-04-08T09:16:20.932Z,1.55
2023-04-08T09:21:25.213Z,1.67
2023-04-08T09:26:27.865Z,3.78
2023-04-08T09:31:31.835Z,4.28
2023-04-08T09:36:33.820Z,3.40
2023-04-08T09:41:37.290Z,3.63
2023-04-08T09:46:51.703Z,2.97
2023-04-08T09:52:11.505Z,2.83
2023-04-08T09:57:42.144Z,1.95
2023-04-08T10:03:07.389Z,2.10
2023-04-08T10:08:10.199Z,2.67
2023-04-08T10:13:12.503Z,2.33
2023-04-08T10:18:15.143Z,1.98
2023-04-08T10:23:18.904Z,1.70
2023-04-08T10:28:21.880Z,2.00
2023-04-08T10:33:29.774Z,1.70
2023-04-08T10:38:32.323Z,2.30
2023-04-08T10:43:35.423Z,2.10
2023-04-08T10:48:37.520Z,1.58
2023-04-08T10:53:40.991Z,2.30
2023-04-08T10:58:49.679Z,2.00
2023-04-08T11:03:52.272Z,2.00
2023-04-08T11:08:58.263Z,1.63
2023-04-08T11:14:00.504Z,1.67
2023-04-08T11:19:06.286Z,1.80
2023-04-08T11:24:12.356Z,1.70
2023-04-08T11:29:15.224Z,1.35
2023-04-08T11:34:24.062Z,1.70
2023-04-08T11:39:26.764Z,1.63
2023-04-08T11:44:34.771Z,1.20
2023-04-08T11:49:47.042Z,1.48
2023-04-08T11:54:49.335Z,1.73
2023-04-08T11:59:51.413Z,1.75
2023-04-08T12:04:57.012Z,1.42
2023-04-08T12:09:59.256Z,1.88
2023-04-08T12:15:01.570Z,1.63
2023-04-08T12:20:04.535Z,1.70
2023-04-08T12:25:07.551Z,2.10
2023-04-08T12:30:10.294Z,1.40
2023-04-08T12:35:12.300Z,1.42
2023-04-08T12:40:15.706Z,1.70
2023-04-08T12:45:17.671Z,1.83
2023-04-08T12:50:19.725Z,1.42
2023-04-08T12:55:25.319Z,1.40
2023-04-08T13:00:28.245Z,1.83
2023-04-08T13:05:42.759Z,1.65
2023-04-08T13:10:45.961Z,1.17
2023-04-08T13:15:48.204Z,1.73
2023-04-08T13:20:50.153Z,1.92
2023-04-08T13:25:52.469Z,1.38
2023-04-08T13:30:55.019Z,1.67
2023-04-08T13:35:57.110Z,1.42
2023-04-08T13:40:59.154Z,1.70
2023-04-08T13:46:01.076Z,2.05
2023-04-08T13:51:03.132Z,1.95
2023-04-08T13:56:05.363Z,1.70
2023-04-08T14:01:07.309Z,1.27
2023-04-08T14:06:09.340Z,1.50
2023-04-08T14:11:11.421Z,1.50
2023-04-08T14:16:13.604Z,2.85
2023-04-08T14:21:16.546Z,1.95
2023-04-08T14:26:18.681Z,2.10
2023-04-08T14:31:20.755Z,2.65
2023-04-08T14:36:24.574Z,1.60
2023-04-08T14:41:27.521Z,2.38
2023-04-08T14:46:29.571Z,2.33
2023-04-08T14:51:32.075Z,2.30
2023-04-08T14:56:34.061Z,1.40
2023-04-08T15:01:36.328Z,2.78
2023-04-08T15:06:40.934Z,2.03
2023-04-08T15:11:43.131Z,2.40
2023-04-08T15:16:45.140Z,2.30
2023-04-08T15:21:47.650Z,2.42
2023-04-08T15:26:49.978Z,2.60
2023-04-08T15:31:53.124Z,2.38
2023-04-08T15:36:57.477Z,2.47
2023-04-08T15:41:59.391Z,2.28
2023-04-08T15:47:01.571Z,1.80
2023-04-08T15:52:03.903Z,2.30
2023-04-08T15:57:05.990Z,2.88
2023-04-08T16:02:08.427Z,2.85
2023-04-08T16:07:10.397Z,2.90
2023-04-08T16:12:12.697Z,1.98
2023-04-08T16:17:14.908Z,2.13
2023-04-08T16:22:16.837Z,2.50
2023-04-08T16:27:19.060Z,1.90
2023-04-08T16:32:21.573Z,2.35
2023-04-08T16:37:23.584Z,1.70
2023-04-08T16:42:25.761Z,1.17
2023-04-08T16:47:28.018Z,1.80
2023-04-08T16:52:30.136Z,1.40
2023-04-08T16:57:32.494Z,1.75
2023-04-08T17:02:34.615Z,1.42
2023-04-08T17:07:36.761Z,1.70
2023-04-08T17:12:38.918Z,1.88
2023-04-08T17:17:41.092Z,1.60
2023-04-08T17:22:43.573Z,2.22
2023-04-08T17:27:45.783Z,1.23
2023-04-08T17:32:48.652Z,1.83
2023-04-08T17:37:50.793Z,1.08
2023-04-08T17:42:52.968Z,1.25
2023-04-08T17:47:55.048Z,1.20
2023-04-08T17:52:57.440Z,1.15
2023-04-08T17:57:59.639Z,1.08
2023-04-08T18:03:01.957Z,1.55
2023-04-08T18:08:04.087Z,1.10
2023-04-08T18:13:11.220Z,1.08
2023-04-08T18:18:18.886Z,1.10
2023-04-08T18:23:20.869Z,0.98
2023-04-08T18:28:23.529Z,1.02
2023-04-08T18:33:26.244Z,1.17
2023-04-08T18:38:28.175Z,1.10
2023-04-08T18:43:30.200Z,1.20
2023-04-08T18:48:33.443Z,1.27
2023-04-08T18:53:35.497Z,1.05
2023-04-08T18:58:37.772Z,0.90
2023-04-08T19:03:40.394Z,0.77
2023-04-08T19:08:42.702Z,0.95
2023-04-08T19:13:44.698Z,1.25
2023-04-08T19:18:46.734Z,1.02
2023-04-08T19:23:49.710Z,1.30
2023-04-08T19:28:51.936Z,1.20
2023-04-08T19:33:54.014Z,1.00
2023-04-08T19:38:56.392Z,1.27
2023-04-08T19:43:58.618Z,1.08
2023-04-08T19:49:00.674Z,1.00
2023-04-08T19:54:02.711Z,1.10
2023-04-08T19:59:04.594Z,0.93
2023-04-08T20:04:06.822Z,1.20
2023-04-08T20:09:08.895Z,1.27
2023-04-08T20:14:11.248Z,1.20
2023-04-08T20:19:13.147Z,1.20
2023-04-08T20:24:15.279Z,1.10
2023-04-08T20:29:17.245Z,1.23
2023-04-08T20:34:19.480Z,1.40
2023-04-08T20:39:22.774Z,1.33
2023-04-08T20:44:25.740Z,1.80
2023-04-08T20:49:27.842Z,1.40
2023-04-08T20:54:31.505Z,1.20
2023-04-08T20:59:33.650Z,1.20
2023-04-08T21:04:36.305Z,1.55
2023-04-08T21:09:38.356Z,1.45
2023-04-08T21:14:40.245Z,1.35
2023-04-08T21:19:42.273Z,2.10
2023-04-08T21:24:44.333Z,1.92
2023-04-08T21:29:46.516Z,2.03
2023-04-08T21:34:48.619Z,1.65
2023-04-08T21:39:50.802Z,1.52
2023-04-08T21:44:52.954Z,1.95
2023-04-08T21:49:56.239Z,1.95
2023-04-08T21:54:58.331Z,2.20
2023-04-08T22:00:00.348Z,1.55
2023-04-08T22:05:02.352Z,1.80
2023-04-08T22:10:04.463Z,1.77
2023-04-08T22:15:06.839Z,2.50
2023-04-08T22:20:09.239Z,2.45
2023-04-08T22:25:11.405Z,2.17
2023-04-08T22:30:13.650Z,2.03
2023-04-08T22:35:15.696Z,2.50
2023-04-08T22:40:17.823Z,2.15
2023-04-08T22:45:19.985Z,2.03
2023-04-08T22:50:23.481Z,2.20
2023-04-08T22:55:25.496Z,1.92
2023-04-08T23:00:27.477Z,2.60
2023-04-08T23:05:29.555Z,2.30
2023-04-08T23:10:31.775Z,2.13
2023-04-08T23:15:33.913Z,2.58
2023-04-08T23:20:36.283Z,2.83
2023-04-08T23:25:38.349Z,2.15
2023-04-08T23:30:40.528Z,2.80
2023-04-08T23:35:42.868Z,2.83
2023-04-08T23:40:45.030Z,2.53
2023-04-08T23:45:46.976Z,3.22
2023-04-08T23:50:55.727Z,2.58
2023-04-08T23:56:07.904Z,3.15
